Terminal Aerodrome Forecast
Issued by NWS Norman, OK

Home | Current Version | Previous Version | Text Only | Print | Product List | Glossary On
Versions: 1 2 3 4 5 6 7 8 9 10 11 12 13 14 15 16 17 18 19 20 21 22 23 24 25 26 27 28 29 30 31 32 33 34 35 36 37 38 39 40
301
FTUS44 KOUN 221136
TAFOKC
TAF
KOKC 221136Z 2212/2312 03009KT 4SM -FZDZ OVC004
     FM221600 03005KT 5SM BR OVC006
      TEMPO 2216/2220 4SM -FZRA BR OVC005
     FM222000 VRB04KT P6SM OVC008
     FM230100 20005KT 4SM BR OVC005=

USA.gov is the U.S. government's official web portal to all federal, state and local government web resources and services.